createdAt,value
2022-11-16T00:01:52.691Z,100356.09
2022-11-16T00:04:24.761Z,100354.31
2022-11-16T00:06:56.867Z,100350.84
2022-11-16T00:09:33.022Z,100350.72
2022-11-16T00:12:08.866Z,100345.47
2022-11-16T00:14:40.934Z,100347.22
2022-11-16T00:17:12.872Z,100342.75
2022-11-16T00:19:44.850Z,100334.00
2022-11-16T00:22:16.799Z,100344.53
2022-11-16T00:24:48.823Z,100333.25
2022-11-16T00:27:20.810Z,100342.88
2022-11-16T00:29:52.734Z,100336.69
2022-11-16T00:32:24.684Z,100340.25
2022-11-16T00:34:56.643Z,100338.59
2022-11-16T00:37:28.600Z,100326.25
2022-11-16T00:40:00.567Z,100335.00
2022-11-16T00:42:32.531Z,100323.72
2022-11-16T00:45:04.893Z,100329.22
2022-11-16T00:47:37.161Z,100328.50
2022-11-16T00:50:09.469Z,100325.03
2022-11-16T00:52:41.442Z,100324.09
2022-11-16T00:55:13.373Z,100321.41
2022-11-16T00:57:45.353Z,100312.78
2022-11-16T01:00:18.818Z,100318.00
2022-11-16T01:02:52.606Z,100313.72
2022-11-16T01:05:24.968Z,100308.69
2022-11-16T01:07:57.353Z,100315.59
2022-11-16T01:10:29.965Z,100315.69
2022-11-16T01:13:01.906Z,100303.38
2022-11-16T01:15:34.178Z,100300.94
2022-11-16T01:18:06.217Z,100298.25
2022-11-16T01:20:40.992Z,100299.06
2022-11-16T01:23:13.032Z,100285.09
2022-11-16T01:25:44.972Z,100297.38
2022-11-16T01:28:16.888Z,100299.13
2022-11-16T01:30:49.483Z,100288.47
2022-11-16T01:33:21.903Z,100287.72
2022-11-16T01:35:53.906Z,100274.56
2022-11-16T01:38:29.614Z,100283.31
2022-11-16T01:41:02.022Z,100282.28
2022-11-16T01:43:53.758Z,100283.19
2022-11-16T01:46:28.416Z,100270.03
2022-11-16T01:49:08.209Z,100272.66
2022-11-16T01:51:44.745Z,100268.38
2022-11-16T01:54:17.014Z,100271.88
2022-11-16T01:56:51.891Z,100262.19
2022-11-16T01:59:24.003Z,100264.84
2022-11-16T02:01:56.975Z,100255.19
2022-11-16T02:04:29.248Z,100266.63
2022-11-16T02:07:12.321Z,100259.66
2022-11-16T02:10:25.437Z,100256.19
2022-11-16T02:14:08.214Z,100256.22
2022-11-16T02:17:16.801Z,100242.25
2022-11-16T02:20:48.901Z,100233.47
2022-11-16T02:23:33.555Z,100236.94
2022-11-16T02:26:45.413Z,100236.72
2022-11-16T02:29:41.794Z,100237.00
2022-11-16T02:32:45.253Z,100237.97
2022-11-16T02:35:25.591Z,100246.75
2022-11-16T02:38:01.332Z,100235.34
2022-11-16T02:40:35.640Z,100238.78
2022-11-16T02:43:12.301Z,100237.97
2022-11-16T02:45:49.187Z,100230.19
2022-11-16T02:48:31.539Z,100237.41
2022-11-16T02:51:06.679Z,100238.25
2022-11-16T02:54:04.177Z,100242.59
2022-11-16T02:56:57.531Z,100224.44
2022-11-16T02:59:47.740Z,100229.56
2022-11-16T03:02:34.600Z,100232.19
2022-11-16T03:05:15.815Z,100232.19
2022-11-16T03:08:08.464Z,100238.41
2022-11-16T03:11:00.802Z,100234.25
2022-11-16T03:13:34.659Z,100240.34
2022-11-16T03:16:24.468Z,100244.84
2022-11-16T03:19:00.122Z,100244.03
2022-11-16T03:21:48.051Z,100242.47
2022-11-16T03:24:21.162Z,100251.38
2022-11-16T03:27:04.716Z,100254.94
2022-11-16T03:30:05.988Z,100246.63
2022-11-16T03:32:54.373Z,100243.31
2022-11-16T03:35:59.559Z,100242.56
2022-11-16T03:38:34.761Z,100246.97
2022-11-16T03:41:09.870Z,100238.25
2022-11-16T03:43:44.359Z,100240.19
2022-11-16T03:46:17.673Z,100235.13
2022-11-16T03:48:56.759Z,100230.78
2022-11-16T03:51:28.972Z,100233.47
2022-11-16T03:54:01.080Z,100226.44
2022-11-16T03:56:33.053Z,100227.41
2022-11-16T03:59:04.987Z,100229.22
2022-11-16T04:01:41.797Z,100229.22
2022-11-16T04:04:39.286Z,100221.41
2022-11-16T04:07:29.670Z,100210.94
2022-11-16T04:10:20.029Z,100213.59
2022-11-16T04:13:11.191Z,100211.09
2022-11-16T04:16:01.796Z,100204.03
2022-11-16T04:18:52.296Z,100213.69
2022-11-16T04:21:48.683Z,100206.78
2022-11-16T04:24:30.348Z,100222.59
2022-11-16T04:27:24.657Z,100208.56
2022-11-16T04:29:58.486Z,100217.31
2022-11-16T04:32:49.163Z,100209.50
2022-11-16T04:35:46.840Z,100216.47
2022-11-16T04:38:18.936Z,100210.47
2022-11-16T04:40:50.910Z,100206.19
2022-11-16T04:43:22.989Z,100193.94
2022-11-16T04:46:13.337Z,100196.56
2022-11-16T04:48:45.241Z,100199.25
2022-11-16T04:51:17.178Z,100202.75
2022-11-16T04:53:49.147Z,100194.88
2022-11-16T04:56:21.149Z,100195.00
2022-11-16T04:58:53.171Z,100185.44
2022-11-16T05:01:45.127Z,100192.41
2022-11-16T05:04:17.175Z,100201.09
2022-11-16T05:06:49.343Z,100195.97
2022-11-16T05:09:21.567Z,100191.69
2022-11-16T05:11:53.655Z,100193.28
2022-11-16T05:14:25.762Z,100193.38
2022-11-16T05:16:57.713Z,100197.72
2022-11-16T05:19:48.173Z,100198.56
2022-11-16T05:22:20.102Z,100182.88
2022-11-16T05:24:52.597Z,100187.28
2022-11-16T05:27:26.994Z,100181.31
2022-11-16T05:29:59.541Z,100196.22
2022-11-16T05:32:31.460Z,100184.00
2022-11-16T05:35:03.562Z,100187.44
2022-11-16T05:37:35.615Z,100184.75
2022-11-16T05:40:08.315Z,100176.13
2022-11-16T05:42:40.361Z,100176.22
2022-11-16T05:45:15.955Z,100181.44
2022-11-16T05:47:50.424Z,100177.25
2022-11-16T05:50:22.472Z,100179.00
2022-11-16T05:52:54.491Z,100184.34
2022-11-16T05:55:26.525Z,100187.84
2022-11-16T05:57:58.461Z,100186.13
2022-11-16T06:00:30.442Z,100178.44
2022-11-16T06:03:02.447Z,100188.00
2022-11-16T06:05:40.436Z,100195.00
2022-11-16T06:08:12.867Z,100192.53
2022-11-16T06:10:44.887Z,100194.34
2022-11-16T06:13:16.929Z,100197.81
2022-11-16T06:15:54.302Z,100194.38
2022-11-16T06:18:27.211Z,100197.81
2022-11-16T06:20:59.144Z,100204.84
2022-11-16T06:23:31.108Z,100196.16
2022-11-16T06:26:04.805Z,100192.66
2022-11-16T06:28:37.392Z,100197.03
2022-11-16T06:31:10.012Z,100202.06
2022-11-16T06:33:42.242Z,100204.66
2022-11-16T06:36:14.222Z,100205.59
2022-11-16T06:38:46.203Z,100209.16
2022-11-16T06:41:18.277Z,100209.16
2022-11-16T06:43:50.230Z,100204.81
2022-11-16T06:46:24.622Z,100206.59
2022-11-16T06:48:57.017Z,100203.16
2022-11-16T06:51:29.062Z,100208.38
2022-11-16T06:54:01.163Z,100210.97
2022-11-16T06:56:35.222Z,100207.47
2022-11-16T06:59:07.182Z,100213.47
2022-11-16T07:01:39.240Z,100211.75
2022-11-16T07:04:12.144Z,100215.19
2022-11-16T07:06:44.161Z,100209.09
2022-11-16T07:09:16.265Z,100215.19
2022-11-16T07:11:48.199Z,100219.53
2022-11-16T07:14:20.176Z,100209.03
2022-11-16T07:16:57.916Z,100223.84
2022-11-16T07:19:31.371Z,100225.63
2022-11-16T07:22:04.377Z,100233.44
2022-11-16T07:24:36.345Z,100240.38
2022-11-16T07:27:08.983Z,100242.16
2022-11-16T07:29:40.907Z,100242.94
2022-11-16T07:32:12.864Z,100252.56
2022-11-16T07:34:44.871Z,100259.69
2022-11-16T07:37:16.851Z,100266.72
2022-11-16T07:39:52.025Z,100262.53
2022-11-16T07:42:23.996Z,100267.72
2022-11-16T07:44:55.970Z,100261.78
2022-11-16T07:47:27.932Z,100266.13
2022-11-16T07:49:59.877Z,100266.09
2022-11-16T07:52:31.980Z,100275.75
2022-11-16T07:55:05.742Z,100280.25
2022-11-16T07:57:37.734Z,100278.47
2022-11-16T08:00:10.300Z,100281.22
2022-11-16T08:02:42.375Z,100283.84
2022-11-16T08:05:14.317Z,100280.38
2022-11-16T08:07:46.353Z,100286.50
2022-11-16T08:10:18.586Z,100290.91
2022-11-16T08:12:50.640Z,100292.63
2022-11-16T08:15:23.685Z,100289.19
2022-11-16T08:17:58.564Z,100302.22
2022-11-16T08:20:31.410Z,100299.53
2022-11-16T08:23:03.369Z,100303.06
2022-11-16T08:25:35.691Z,100310.91
2022-11-16T08:28:07.677Z,100303.03
2022-11-16T08:30:40.178Z,100312.59
2022-11-16T08:33:12.118Z,100314.44
2022-11-16T08:35:44.038Z,100300.56
2022-11-16T08:38:16.066Z,100301.41
2022-11-16T08:40:50.880Z,100302.22
2022-11-16T08:43:22.828Z,100307.41
2022-11-16T08:45:55.998Z,100311.75
2022-11-16T08:48:28.106Z,100316.13
2022-11-16T08:51:17.540Z,100320.47
2022-11-16T08:53:57.261Z,100320.56
2022-11-16T08:56:30.331Z,100324.88
2022-11-16T08:59:02.323Z,100327.47
2022-11-16T09:01:34.389Z,100324.84
2022-11-16T09:04:06.689Z,100325.78
2022-11-16T09:06:39.001Z,100324.84
2022-11-16T09:09:11.169Z,100328.34
2022-11-16T09:11:43.229Z,100323.13
2022-11-16T09:14:15.168Z,100330.09
2022-11-16T09:16:47.169Z,100326.72
2022-11-16T09:19:20.581Z,100333.72
2022-11-16T09:21:52.606Z,100329.41
2022-11-16T09:24:24.560Z,100343.31
2022-11-16T09:27:00.923Z,100335.47
2022-11-16T09:29:33.154Z,100336.38
2022-11-16T09:32:05.410Z,100346.78
2022-11-16T09:34:37.438Z,100347.72
2022-11-16T09:37:09.683Z,100351.19
2022-11-16T09:39:42.090Z,100347.63
2022-11-16T09:42:25.555Z,100339.78
2022-11-16T09:45:21.197Z,100351.97
2022-11-16T09:48:02.358Z,100352.03
2022-11-16T09:51:01.873Z,100354.66
2022-11-16T09:53:46.605Z,100347.69
2022-11-16T09:56:26.426Z,100347.72
2022-11-16T09:59:17.934Z,100353.84
2022-11-16T10:02:02.245Z,100358.13
2022-11-16T10:05:04.805Z,100361.63
2022-11-16T10:07:50.571Z,100359.06
2022-11-16T10:10:39.911Z,100355.63
2022-11-16T10:13:20.653Z,100360.81
2022-11-16T10:16:15.649Z,100369.53
2022-11-16T10:19:26.041Z,100361.69
2022-11-16T10:22:16.599Z,100361.66
2022-11-16T10:24:55.885Z,100360.81
2022-11-16T10:27:49.444Z,100358.19
2022-11-16T10:30:22.886Z,100362.47
2022-11-16T10:33:19.383Z,100356.38
2022-11-16T10:35:57.025Z,100356.41
2022-11-16T10:38:31.252Z,100342.50
2022-11-16T10:41:29.743Z,100353.81
2022-11-16T10:44:02.618Z,100348.56
2022-11-16T10:46:44.714Z,100353.72
2022-11-16T10:49:36.412Z,100346.78
2022-11-16T10:52:08.474Z,100350.28
2022-11-16T10:54:44.287Z,100357.22
2022-11-16T10:57:17.811Z,100346.84
2022-11-16T10:59:59.164Z,100345.97
2022-11-16T11:02:37.453Z,100355.56
2022-11-16T11:05:20.868Z,100344.25
2022-11-16T11:08:05.092Z,100343.31
2022-11-16T11:10:41.837Z,100347.66
2022-11-16T11:13:13.756Z,100347.69
2022-11-16T11:15:47.639Z,100341.66
2022-11-16T11:18:31.816Z,100354.69
2022-11-16T11:21:21.012Z,100340.78
2022-11-16T11:24:06.142Z,100350.34
2022-11-16T11:26:58.442Z,100343.41
2022-11-16T11:29:34.949Z,100353.81
2022-11-16T11:32:24.198Z,100346.88
2022-11-16T11:34:57.543Z,100358.16
2022-11-16T11:37:39.775Z,100352.09
2022-11-16T11:40:18.918Z,100347.75
2022-11-16T11:43:01.162Z,100345.19
2022-11-16T11:45:39.963Z,100353.03
2022-11-16T11:48:38.005Z,100348.69
2022-11-16T11:51:37.015Z,100346.94
2022-11-16T11:54:28.550Z,100336.53
2022-11-16T11:57:02.435Z,100343.47
2022-11-16T11:59:35.372Z,100346.03
2022-11-16T12:02:42.596Z,100341.75
2022-11-16T12:05:26.936Z,100340.91
2022-11-16T12:08:23.930Z,100333.13
2022-11-16T12:11:23.908Z,100337.44
2022-11-16T12:14:18.365Z,100327.81
2022-11-16T12:17:38.870Z,100331.28
2022-11-16T12:20:42.080Z,100341.66
2022-11-16T12:23:36.798Z,100336.44
2022-11-16T12:26:57.195Z,100333.84
2022-11-16T12:30:06.909Z,100345.13
2022-11-16T12:33:12.109Z,100334.72
2022-11-16T12:36:09.617Z,100337.31
2022-11-16T12:39:08.247Z,100336.44
2022-11-16T12:42:02.476Z,100327.78
2022-11-16T12:44:57.076Z,100337.28
2022-11-16T12:48:02.798Z,100339.00
2022-11-16T12:51:31.740Z,100339.84
2022-11-16T12:55:04.297Z,100347.69
2022-11-16T12:58:09.745Z,100345.13
2022-11-16T13:01:04.326Z,100354.69
2022-11-16T13:03:48.028Z,100353.78
2022-11-16T13:06:44.754Z,100346.84
2022-11-16T13:09:22.073Z,100345.06
2022-11-16T13:12:02.009Z,100346.78
2022-11-16T13:14:40.740Z,100336.38
2022-11-16T13:17:35.585Z,100342.50
2022-11-16T13:20:24.913Z,100342.50
2022-11-16T13:23:22.347Z,100344.22
2022-11-16T13:26:30.987Z,100339.88
2022-11-16T13:29:31.419Z,100345.91
2022-11-16T13:32:08.872Z,100348.53
2022-11-16T13:34:41.683Z,100337.31
2022-11-16T13:37:38.442Z,100338.13
2022-11-16T13:40:23.714Z,100326.84
2022-11-16T13:43:19.364Z,100334.72
2022-11-16T13:45:57.504Z,100328.69
2022-11-16T13:48:36.460Z,100322.63
2022-11-16T13:51:21.074Z,100318.25
2022-11-16T13:56:51.584Z,100324.31
2022-11-16T13:59:30.910Z,100326.91
2022-11-16T14:02:42.713Z,100319.97
2022-11-16T14:05:40.449Z,100333.84
2022-11-16T14:08:24.571Z,100322.56
2022-11-16T14:10:56.447Z,100325.22
2022-11-16T14:13:45.794Z,100327.00
2022-11-16T14:16:17.874Z,100333.09
2022-11-16T14:18:51.905Z,100335.66
2022-11-16T14:21:47.672Z,100336.53
2022-11-16T14:24:37.238Z,100334.72
2022-11-16T14:27:36.217Z,100337.28
2022-11-16T14:30:25.268Z,100333.84
2022-11-16T14:32:58.138Z,100340.84
2022-11-16T14:35:39.638Z,100343.41
2022-11-16T14:38:34.585Z,100353.94
2022-11-16T14:41:18.280Z,100347.03
2022-11-16T14:43:54.295Z,100346.16
2022-11-16T14:46:33.434Z,100350.44
2022-11-16T14:49:13.240Z,100340.94
2022-11-16T14:51:54.424Z,100342.63
2022-11-16T14:54:42.859Z,100338.34
2022-11-16T14:57:21.062Z,100339.19
2022-11-16T15:00:17.985Z,100345.25
2022-11-16T15:03:00.924Z,100336.53
2022-11-16T15:05:36.791Z,100340.91
2022-11-16T15:08:20.985Z,100340.03
2022-11-16T15:10:53.159Z,100338.28
2022-11-16T15:13:25.845Z,100338.31
2022-11-16T15:16:19.735Z,100334.81
2022-11-16T15:19:02.189Z,100336.50
2022-11-16T15:21:34.271Z,100336.50
2022-11-16T15:24:29.202Z,100340.84
2022-11-16T15:27:11.672Z,100333.03
2022-11-16T15:29:43.769Z,100336.56
2022-11-16T15:32:19.079Z,100340.06
2022-11-16T15:34:54.487Z,100344.44
2022-11-16T15:37:30.684Z,100344.38
2022-11-16T15:40:03.469Z,100340.91
2022-11-16T15:42:37.331Z,100341.78
2022-11-16T15:45:24.843Z,100338.31
2022-11-16T15:48:00.665Z,100342.69
2022-11-16T15:50:32.893Z,100338.38
2022-11-16T15:53:04.915Z,100339.22
2022-11-16T15:55:40.433Z,100345.31
2022-11-16T15:58:27.380Z,100336.63
2022-11-16T16:01:00.295Z,100329.66
2022-11-16T16:03:34.908Z,100337.50
2022-11-16T16:06:12.936Z,100340.94
2022-11-16T16:08:45.405Z,100342.72
2022-11-16T16:11:26.483Z,100337.47
2022-11-16T16:14:04.568Z,100334.84
2022-11-16T16:16:38.773Z,100343.56
2022-11-16T16:19:44.800Z,100324.47
2022-11-16T16:22:36.352Z,100325.34
2022-11-16T16:25:31.906Z,100336.63
2022-11-16T16:28:04.337Z,100333.19
2022-11-16T16:30:36.364Z,100341.84
2022-11-16T16:33:19.124Z,100338.34
2022-11-16T16:35:51.219Z,100345.34
2022-11-16T16:38:23.277Z,100339.25
2022-11-16T16:41:04.435Z,100336.63
2022-11-16T16:43:36.848Z,100328.84
2022-11-16T16:46:13.218Z,100328.84
2022-11-16T16:48:45.221Z,100326.25
2022-11-16T16:51:17.265Z,100322.78
2022-11-16T16:53:49.308Z,100327.97
2022-11-16T16:56:21.500Z,100333.16
2022-11-16T16:58:54.244Z,100340.09
2022-11-16T17:01:26.765Z,100352.25
2022-11-16T17:03:59.022Z,100343.59
2022-11-16T17:06:31.352Z,100346.19
2022-11-16T17:09:03.828Z,100341.84
2022-11-16T17:11:35.816Z,100336.63
2022-11-16T17:14:08.189Z,100340.97
2022-11-16T17:16:40.421Z,100333.16
2022-11-16T17:19:14.007Z,100327.97
2022-11-16T17:21:46.037Z,100333.16
2022-11-16T17:24:18.022Z,100325.34
2022-11-16T17:26:50.677Z,100320.13
2022-11-16T17:29:22.677Z,100327.94
2022-11-16T17:31:54.888Z,100328.81
2022-11-16T17:34:26.907Z,100326.19
2022-11-16T17:36:58.875Z,100331.41
2022-11-16T17:39:30.853Z,100330.50
2022-11-16T17:42:03.199Z,100328.78
2022-11-16T17:44:35.156Z,100315.78
2022-11-16T17:47:07.543Z,100320.13
2022-11-16T17:49:39.540Z,100323.59
2022-11-16T17:52:11.471Z,100318.41
2022-11-16T17:54:43.470Z,100329.69
2022-11-16T17:57:15.462Z,100322.72
2022-11-16T17:59:47.892Z,100325.31
2022-11-16T18:02:19.830Z,100339.19
2022-11-16T18:04:52.006Z,100344.38
2022-11-16T18:07:24.117Z,100341.78
2022-11-16T18:09:56.130Z,100338.31
2022-11-16T18:12:28.134Z,100338.31
2022-11-16T18:15:26.848Z,100333.13
2022-11-16T18:17:56.893Z,100333.06
2022-11-16T18:20:29.713Z,100324.41
2022-11-16T18:23:01.657Z,100333.06
2022-11-16T18:25:37.024Z,100333.97
2022-11-16T18:28:08.995Z,100331.41
2022-11-16T18:30:41.223Z,100323.56
2022-11-16T18:33:13.214Z,100326.16
2022-11-16T18:35:45.295Z,100327.00
2022-11-16T18:38:17.407Z,100329.59
2022-11-16T18:41:11.904Z,100327.06
2022-11-16T18:43:51.184Z,100315.75
2022-11-16T18:46:27.000Z,100323.56
2022-11-16T18:48:59.445Z,100332.22
2022-11-16T18:51:32.019Z,100320.06
2022-11-16T18:54:04.294Z,100318.34
2022-11-16T18:56:36.740Z,100306.09
2022-11-16T18:59:08.707Z,100298.31
2022-11-16T19:01:40.767Z,100300.94
2022-11-16T19:04:12.771Z,100306.16
2022-11-16T19:06:44.815Z,100300.06
2022-11-16T19:09:16.759Z,100305.22
2022-11-16T19:11:50.776Z,100310.47
2022-11-16T19:14:22.885Z,100307.84
2022-11-16T19:16:57.243Z,100297.47
2022-11-16T19:19:30.069Z,100287.03
2022-11-16T19:22:02.085Z,100284.41
2022-11-16T19:24:34.031Z,100276.59
2022-11-16T19:27:06.056Z,100273.16
2022-11-16T19:29:38.002Z,100280.09
2022-11-16T19:32:10.071Z,100277.50
2022-11-16T19:34:42.102Z,100280.13
2022-11-16T19:37:15.175Z,100280.13
2022-11-16T19:39:47.186Z,100279.25
2022-11-16T19:42:19.238Z,100277.50
2022-11-16T19:44:51.204Z,100291.38
2022-11-16T19:47:26.198Z,100291.47
2022-11-16T19:49:58.141Z,100299.31
2022-11-16T19:52:30.233Z,100284.53
2022-11-16T19:55:02.215Z,100268.91
2022-11-16T19:57:34.204Z,100269.78
2022-11-16T20:00:07.034Z,100263.69
2022-11-16T20:02:39.173Z,100273.19
2022-11-16T20:05:11.139Z,100277.53
2022-11-16T20:07:44.698Z,100272.31
2022-11-16T20:10:17.281Z,100275.81
2022-11-16T20:12:49.819Z,100272.41
2022-11-16T20:15:24.001Z,100266.31
2022-11-16T20:17:57.230Z,100278.47
2022-11-16T20:20:29.307Z,100283.69
2022-11-16T20:23:01.275Z,100285.44
2022-11-16T20:25:33.288Z,100272.44
2022-11-16T20:28:05.562Z,100269.81
2022-11-16T20:30:37.545Z,100278.50
2022-11-16T20:33:09.921Z,100269.84
2022-11-16T20:35:42.271Z,100271.59
2022-11-16T20:38:14.297Z,100270.69
2022-11-16T20:40:46.230Z,100255.09
2022-11-16T20:43:18.216Z,100262.91
2022-11-16T20:45:54.127Z,100262.00
2022-11-16T20:48:26.083Z,100263.72
2022-11-16T20:51:01.633Z,100275.91
2022-11-16T20:53:34.760Z,100269.84
2022-11-16T20:56:07.947Z,100260.31
2022-11-16T20:58:41.132Z,100266.38
2022-11-16T21:01:19.496Z,100254.22
2022-11-16T21:03:51.530Z,100250.75
2022-11-16T21:06:25.332Z,100253.34
2022-11-16T21:08:58.027Z,100249.88
2022-11-16T21:11:52.525Z,100262.91
2022-11-16T21:14:24.962Z,100255.97
2022-11-16T21:16:56.969Z,100247.28
2022-11-16T21:19:29.243Z,100268.09
2022-11-16T21:22:01.688Z,100262.94
2022-11-16T21:24:34.877Z,100275.94
2022-11-16T21:27:09.809Z,100261.16
2022-11-16T21:29:42.432Z,100262.97
2022-11-16T21:32:14.749Z,100262.06
2022-11-16T21:34:47.094Z,100260.28
2022-11-16T21:37:19.289Z,100263.75
2022-11-16T21:39:51.434Z,100268.13
2022-11-16T21:42:24.251Z,100261.19
2022-11-16T21:44:56.262Z,100257.72
2022-11-16T21:47:31.036Z,100256.88
2022-11-16T21:52:55.436Z,100239.50
2022-11-16T21:55:27.897Z,100239.50
2022-11-16T21:58:00.583Z,100236.88
2022-11-16T22:00:32.605Z,100227.34
2022-11-16T22:03:04.748Z,100229.94
2022-11-16T22:06:11.726Z,100232.50
2022-11-16T22:08:44.940Z,100229.06
2022-11-16T22:11:18.067Z,100233.38
2022-11-16T22:13:50.523Z,100228.19
2022-11-16T22:16:23.592Z,100221.28
2022-11-16T22:18:55.771Z,100212.63
2022-11-16T22:21:28.568Z,100204.75
2022-11-16T22:24:01.906Z,100198.69
2022-11-16T22:26:38.201Z,100209.97
2022-11-16T22:29:13.481Z,100200.44
2022-11-16T22:31:47.395Z,100192.63
2022-11-16T22:34:19.360Z,100197.84
2022-11-16T22:36:51.591Z,100193.56
2022-11-16T22:39:23.748Z,100190.09
2022-11-16T22:41:55.746Z,100203.09
2022-11-16T22:44:27.836Z,100200.50
2022-11-16T22:46:59.984Z,100194.47
2022-11-16T22:49:31.985Z,100194.47
2022-11-16T22:52:04.190Z,100190.94
2022-11-16T22:54:38.888Z,100187.50
2022-11-16T22:57:10.995Z,100182.28
2022-11-16T22:59:42.908Z,100184.88
2022-11-16T23:02:14.909Z,100195.28
2022-11-16T23:04:46.837Z,100194.47
2022-11-16T23:07:18.849Z,100171.88
2022-11-16T23:09:50.801Z,100160.66
2022-11-16T23:12:41.662Z,100157.19
2022-11-16T23:15:32.661Z,100144.16
2022-11-16T23:18:04.988Z,100140.69
2022-11-16T23:20:55.678Z,100133.78
2022-11-16T23:23:45.972Z,100106.91
2022-11-16T23:26:42.271Z,100117.31
2022-11-16T23:29:14.240Z,100118.09
2022-11-16T23:31:46.196Z,100112.03
2022-11-16T23:34:20.064Z,100116.44
2022-11-16T23:36:51.991Z,100124.22
2022-11-16T23:39:23.972Z,100102.50
2022-11-16T23:42:14.273Z,100105.06
2022-11-16T23:44:46.559Z,100120.66
2022-11-16T23:47:18.506Z,100122.44
2022-11-16T23:49:50.517Z,100107.81
2022-11-16T23:52:22.463Z,100126.00
2022-11-16T23:54:54.453Z,100113.00
2022-11-16T23:57:26.403Z,100119.94
2022-11-16T23:59:58.471Z,100110.41
